Главная страница
METAR-TAF:

METAR-TAF

Аэропорты :

Каракас, Венесуэла

широта: 10-36N, долгота: 066-59W, высота над уровнем моря: 43 м

Текущие метеонаблюдения

Эта сводка был подготовлена 34 минут назад, в 09:00 UTC
Штиль
Температура 24°C
Влажность 78%
Давление 1007 hPa
Видимость 10 км и более
Отдельные облака на высоте 1600 фута

METAR: SVMI 250900Z 00000KT 9999 SCT016 24/20 Q1007

Время: 05:34 (09:34 UTC)

Прогноз

Эта сводка был подготовлена 5 часа и 34 минут назад, в 04:00 UTC
Прогноз действительный с 25-го 06 UTC до 26-го 06 UTC
Ветер Узел от северный
Видимость 10 км и более
Рассеянная облачность на высоте 1600 фута
временами
С 25-го 06 UTC до 25-го 10 UTC
Видимость: 8000 м
Рассеянная облачность на высоте 1300 фута
Морось

TAF: SVMI 250400Z 2506/2606 00000KT 9999 BKN016 TX33/19Z TN24/09Z TEMPO 2506/2510 8000 DZ BKN013

Метеонаблюдения и прогнозы для более 4000 аэропортов (сводки METAR и TAF).

Имеющиеся станции представлены на карте желтыми и красными точками.

Чтобы увидеть название станции, наведите на нее мышь.

Затем щелкните, чтобы увидеть метеонаблюдения и метеопрогнозы.

Управление картой: чтобы увеличить масштаб, щелкните зеленые кнопки с черным крестиком; чтобы уменьшить масштаб, щелкните зеленую кнопку с тире; для просмотра соседних карт щелкайте зеленые стрелки.


METAR-TAF: